Time;durP1;ratioP1;P1;durP2;ratioP2;P2;SDS_P1;SDS_P2;PMS_P1;PMS_P2;Temp;Humidity;BMP_temperature;BMP_pressure;BME280_temperature;BME280_humidity;BME280_pressure;Samples;Min_cycle;Max_cycle;Signal;HPM_P1;HPM_P2
2023/05/27 00:03:20;;;;;;;13.38;4.20;;;20.70;59.20;;;;;;8430686;28;20063;-44
2023/05/27 00:07:21;;;;;;;13.70;4.70;;;20.70;59.10;;;;;;8430935;28;20031;-45
2023/05/27 00:11:22;;;;;;;13.25;4.50;;;20.70;59.00;;;;;;8430659;28;20285;-45
2023/05/27 00:15:22;;;;;;;9.02;4.00;;;20.70;58.70;;;;;;8430522;28;20024;-46
2023/05/27 00:19:24;;;;;;;7.78;4.28;;;20.80;58.80;;;;;;8430468;28;20054;-44
2023/05/27 00:23:25;;;;;;;8.48;3.45;;;20.70;58.70;;;;;;8430561;28;20517;-46
2023/05/27 00:27:25;;;;;;;11.63;4.25;;;20.70;59.30;;;;;;8431007;28;20431;-45
2023/05/27 00:31:26;;;;;;;13.93;3.88;;;20.70;58.80;;;;;;8430169;28;20031;-45
2023/05/27 00:35:28;;;;;;;;;;;20.70;58.80;;;;;;8430381;28;20106;-45
2023/05/27 00:39:29;;;;;;;;;;;20.70;58.70;;;;;;8430403;28;19979;-45
2023/05/27 00:43:30;;;;;;;11.43;3.42;;;20.70;58.60;;;;;;8430080;28;19908;-46
2023/05/27 00:47:33;;;;;;;8.95;3.55;;;20.70;58.50;;;;;;8429566;28;20057;-45
2023/05/27 00:51:33;;;;;;;15.55;4.45;;;20.70;58.70;;;;;;8429691;28;20031;-46
2023/05/27 00:55:35;;;;;;;8.25;3.33;;;20.70;58.60;;;;;;8429641;28;20055;-45
2023/05/27 00:59:36;;;;;;;11.55;3.85;;;20.70;58.60;;;;;;8429088;28;20024;-47
2023/05/27 01:03:38;;;;;;;8.33;3.70;;;20.70;58.60;;;;;;8429199;28;20055;-45
2023/05/27 01:08:06;;;;;;;8.65;3.63;;;20.80;58.50;;;;;;8428955;28;20290;-46
2023/05/27 01:12:23;;;;;;;7.82;3.33;;;20.80;58.40;;;;;;8428966;28;20074;-46
2023/05/27 01:16:26;;;;;;;7.97;3.30;;;20.80;58.30;;;;;;8428834;28;20039;-47
2023/05/27 01:20:27;;;;;;;5.93;3.20;;;20.80;58.20;;;;;;8428569;28;20028;-45
2023/05/27 01:24:28;;;;;;;7.22;3.03;;;20.80;58.20;;;;;;8405582;28;20104;-46
2023/05/27 01:28:29;;;;;;;6.93;2.83;;;20.80;58.20;;;;;;8395002;28;20033;-46
2023/05/27 01:32:32;;;;;;;8.00;3.13;;;20.80;58.20;;;;;;8395325;28;20032;-47
2023/05/27 01:36:39;;;;;;;7.97;3.13;;;20.80;58.20;;;;;;8395202;28;20070;-46
2023/05/27 01:40:41;;;;;;;6.15;2.72;;;20.80;58.20;;;;;;8395026;28;20031;-46
2023/05/27 01:44:43;;;;;;;8.82;2.90;;;20.80;58.10;;;;;;8395001;28;20107;-46
2023/05/27 01:48:44;;;;;;;8.63;3.95;;;20.80;58.10;;;;;;8394744;28;20029;-49
2023/05/27 01:52:45;;;;;;;6.55;3.00;;;20.80;58.00;;;;;;8395030;28;20024;-45
2023/05/27 01:56:45;;;;;;;8.18;2.78;;;20.80;58.10;;;;;;8394727;28;20028;-44
2023/05/27 02:00:46;;;;;;;6.63;2.80;;;20.80;58.20;;;;;;8394557;28;20108;-44
2023/05/27 02:04:47;;;;;;;8.52;2.78;;;20.80;58.30;;;;;;8409134;28;20077;-47
2023/05/27 02:08:47;;;;;;;5.88;2.60;;;20.80;58.30;;;;;;8427982;28;20489;-45
2023/05/27 02:12:48;;;;;;;7.65;2.50;;;20.80;58.30;;;;;;8427975;28;20111;-46
2023/05/27 02:16:49;;;;;;;7.85;2.75;;;20.80;58.40;;;;;;8427903;28;20215;-46
2023/05/27 02:20:49;;;;;;;6.43;2.65;;;20.70;58.40;;;;;;8427848;28;20039;-45
2023/05/27 02:24:50;;;;;;;4.82;2.55;;;20.70;58.40;;;;;;8427895;28;20032;-45
2023/05/27 02:28:51;;;;;;;6.13;2.55;;;20.80;58.30;;;;;;8440075;28;20030;-44
2023/05/27 02:32:51;;;;;;;4.78;2.50;;;20.80;58.40;;;;;;8457617;28;20024;-43
2023/05/27 02:36:52;;;;;;;6.32;2.70;;;20.70;58.30;;;;;;8460074;28;20039;-43
2023/05/27 02:40:53;;;;;;;4.73;2.27;;;20.70;58.30;;;;;;8464552;28;20503;-43
2023/05/27 02:44:53;;;;;;;8.83;2.93;;;20.60;58.40;;;;;;8464333;28;20280;-44
2023/05/27 02:48:54;;;;;;;6.10;2.30;;;20.60;58.30;;;;;;8465113;28;20292;-43
2023/05/27 02:52:55;;;;;;;8.95;2.90;;;20.60;58.10;;;;;;8455099;28;20024;-42
2023/05/27 02:56:55;;;;;;;5.45;2.22;;;20.60;57.90;;;;;;8430751;28;20486;-43
2023/05/27 03:00:56;;;;;;;4.13;2.10;;;20.70;58.00;;;;;;8431394;28;20028;-43
2023/05/27 03:04:57;;;;;;;7.87;2.63;;;20.60;57.90;;;;;;8430097;28;20050;-43
2023/05/27 03:08:58;;;;;;;4.00;2.20;;;20.70;57.90;;;;;;8430242;28;20033;-43
2023/05/27 03:12:58;;;;;;;4.95;2.22;;;20.70;57.80;;;;;;8430497;28;20024;-43
2023/05/27 03:16:59;;;;;;;5.88;2.40;;;20.60;57.80;;;;;;8430222;28;20055;-42
2023/05/27 03:21:01;;;;;;;4.50;2.22;;;20.60;58.00;;;;;;8430100;28;20032;-43
2023/05/27 03:25:02;;;;;;;;;;;20.60;58.00;;;;;;8430271;28;20047;-43
2023/05/27 03:29:03;;;;;;;7.60;2.53;;;20.60;58.10;;;;;;8429708;28;19938;-43
2023/05/27 03:33:03;;;;;;;4.38;2.80;;;20.50;58.10;;;;;;8429937;28;20056;-43
2023/05/27 03:37:04;;;;;;;5.55;2.40;;;20.50;58.10;;;;;;8429761;28;20032;-43
2023/05/27 03:41:05;;;;;;;4.65;2.72;;;20.50;58.20;;;;;;8428955;28;20024;-43
2023/05/27 03:45:06;;;;;;;4.15;2.35;;;20.50;58.40;;;;;;8429401;28;20032;-44
2023/05/27 03:49:07;;;;;;;3.67;1.70;;;20.50;58.30;;;;;;8428408;28;20143;-44
2023/05/27 03:53:07;;;;;;;7.88;2.65;;;20.40;58.30;;;;;;8429284;28;20031;-44
2023/05/27 03:57:08;;;;;;;4.53;2.30;;;20.40;58.40;;;;;;8429023;28;20090;-42
2023/05/27 04:01:09;;;;;;;7.18;2.15;;;20.40;58.40;;;;;;8428735;28;20040;-44
2023/05/27 04:05:10;;;;;;;8.57;2.55;;;20.40;58.30;;;;;;8428276;28;20064;-43
2023/05/27 04:09:11;;;;;;;5.13;2.38;;;20.40;58.30;;;;;;8428643;28;20579;-43
2023/05/27 04:13:12;;;;;;;7.75;2.28;;;20.50;58.30;;;;;;8428423;28;20416;-44
2023/05/27 04:17:13;;;;;;;4.57;2.47;;;20.60;58.00;;;;;;8428480;28;20032;-44
2023/05/27 04:21:14;;;;;;;;;;;20.60;57.80;;;;;;8428641;28;20381;-43
2023/05/27 04:25:15;;;;;;;2.90;1.83;;;20.60;57.90;;;;;;8428133;28;19991;-43
2023/05/27 04:29:15;;;;;;;6.90;2.55;;;20.60;58.00;;;;;;8427884;28;20028;-43
2023/05/27 04:33:16;;;;;;;6.40;2.58;;;20.50;58.00;;;;;;8428394;28;20393;-44
2023/05/27 04:37:18;;;;;;;;;;;20.50;58.00;;;;;;8428247;28;20062;-43
2023/05/27 04:41:28;;;;;;;6.10;2.20;;;20.50;58.10;;;;;;8427599;28;20321;-44
2023/05/27 04:45:29;;;;;;;7.40;2.90;;;20.50;58.10;;;;;;8427661;28;20028;-43
2023/05/27 04:49:30;;;;;;;;;;;20.50;58.00;;;;;;8427594;28;20047;-43
2023/05/27 04:53:30;;;;;;;3.57;2.63;;;20.60;57.80;;;;;;8427585;28;19948;-43
2023/05/27 04:57:31;;;;;;;7.47;2.42;;;20.60;57.70;;;;;;8427324;28;20247;-44
2023/05/27 05:01:48;;;;;;;3.53;2.10;;;20.60;57.60;;;;;;8425925;28;20036;-44
2023/05/27 05:05:52;;;;;;;3.72;2.15;;;20.60;57.70;;;;;;8426675;28;20461;-43
2023/05/27 05:09:53;;;;;;;3.83;2.25;;;20.60;57.70;;;;;;8426801;28;20036;-43
2023/05/27 05:13:54;;;;;;;4.43;2.30;;;20.60;57.70;;;;;;8426768;28;20103;-43
2023/05/27 05:17:54;;;;;;;4.45;2.10;;;20.60;57.70;;;;;;8426641;28;20097;-44
2023/05/27 05:21:55;;;;;;;5.20;2.17;;;20.60;57.60;;;;;;8408929;28;20032;-43
2023/05/27 05:25:58;;;;;;;4.35;2.20;;;20.60;57.70;;;;;;8426586;28;20489;-44
2023/05/27 05:29:59;;;;;;;4.28;2.42;;;20.60;57.80;;;;;;8426366;28;20034;-44
2023/05/27 05:33:59;;;;;;;4.03;2.27;;;20.60;57.80;;;;;;8426697;28;20040;-43
2023/05/27 05:38:00;;;;;;;5.03;2.33;;;20.50;57.80;;;;;;8408367;28;20641;-43
2023/05/27 05:42:01;;;;;;;5.22;2.28;;;20.60;57.90;;;;;;8426135;28;20486;-44
2023/05/27 05:46:01;;;;;;;6.53;2.30;;;20.50;57.80;;;;;;8408171;28;20042;-44
2023/05/27 05:50:02;;;;;;;4.55;2.05;;;20.50;57.80;;;;;;8425901;28;20115;-43
2023/05/27 05:54:03;;;;;;;3.70;1.90;;;20.50;57.80;;;;;;8426466;28;20086;-43
2023/05/27 05:58:04;;;;;;;4.30;2.63;;;20.50;57.90;;;;;;8425878;28;20028;-44
2023/05/27 06:02:05;;;;;;;3.45;1.80;;;20.60;57.80;;;;;;8425731;28;20040;-43
2023/05/27 06:06:06;;;;;;;5.97;2.30;;;20.60;57.90;;;;;;8425661;28;20048;-44
2023/05/27 06:10:07;;;;;;;3.78;2.10;;;20.50;57.90;;;;;;8425941;28;20107;-44
2023/05/27 06:14:07;;;;;;;3.92;2.47;;;20.50;57.90;;;;;;8430951;28;20107;-44
2023/05/27 06:18:08;;;;;;;4.55;2.38;;;20.50;58.00;;;;;;8432279;28;20077;-43
2023/05/27 06:22:09;;;;;;;3.92;2.40;;;20.50;57.90;;;;;;8432498;28;20068;-43
2023/05/27 06:26:10;;;;;;;2.63;1.90;;;20.50;57.80;;;;;;8447332;28;20032;-44
2023/05/27 06:30:11;;;;;;;2.45;1.58;;;20.60;57.70;;;;;;8430607;28;20344;-44
2023/05/27 06:34:11;;;;;;;2.45;1.75;;;20.60;57.70;;;;;;8431606;28;20033;-44
2023/05/27 06:38:12;;;;;;;4.25;2.40;;;20.50;57.70;;;;;;8431389;28;20401;-44
2023/05/27 06:42:14;;;;;;;5.22;2.15;;;20.50;57.80;;;;;;8431580;28;20118;-44
2023/05/27 06:46:15;;;;;;;3.60;1.77;;;20.50;58.00;;;;;;8431199;28;20115;-44
2023/05/27 06:50:15;;;;;;;3.50;1.95;;;20.50;58.10;;;;;;8413215;28;20043;-43
2023/05/27 06:54:16;;;;;;;3.23;2.23;;;20.40;58.00;;;;;;8431298;28;20473;-44
2023/05/27 06:58:16;;;;;;;3.35;2.05;;;20.40;58.00;;;;;;8431764;28;20831;-44
2023/05/27 07:02:17;;;;;;;4.22;2.08;;;20.50;57.90;;;;;;8430956;28;20035;-44
2023/05/27 07:06:18;;;;;;;4.43;1.92;;;20.50;57.90;;;;;;8430332;28;20131;-44
2023/05/27 07:10:18;;;;;;;2.53;1.60;;;20.50;57.70;;;;;;8430528;28;20419;-44
2023/05/27 07:14:19;;;;;;;5.47;1.98;;;20.60;57.60;;;;;;8430271;28;20441;-44
2023/05/27 07:18:20;;;;;;;2.60;1.75;;;20.60;57.60;;;;;;8430194;28;20055;-45
2023/05/27 07:22:21;;;;;;;3.08;1.70;;;20.60;57.50;;;;;;8429741;28;20079;-44
2023/05/27 07:26:22;;;;;;;;;;;20.60;57.60;;;;;;8430139;28;20040;-43
2023/05/27 07:30:22;;;;;;;3.10;2.20;;;20.60;57.60;;;;;;8429779;28;20014;-44
2023/05/27 07:34:23;;;;;;;2.80;1.70;;;20.60;57.60;;;;;;8429673;28;20032;-43
2023/05/27 07:38:24;;;;;;;1.92;1.52;;;20.50;57.70;;;;;;8429763;28;20068;-43
2023/05/27 07:42:25;;;;;;;3.35;1.80;;;20.50;57.80;;;;;;8429344;28;20039;-43
2023/05/27 07:46:26;;;;;;;3.20;1.88;;;20.50;57.70;;;;;;8429220;28;20039;-43
2023/05/27 07:50:26;;;;;;;2.50;1.88;;;20.50;57.80;;;;;;8429340;28;20035;-42
2023/05/27 07:54:27;;;;;;;3.17;1.67;;;20.40;57.80;;;;;;8429399;28;20036;-44
2023/05/27 07:58:27;;;;;;;3.55;1.88;;;20.40;57.80;;;;;;8428973;28;20024;-44
2023/05/27 08:02:28;;;;;;;3.85;1.83;;;20.50;57.90;;;;;;8428768;28;20058;-43
2023/05/27 08:06:29;;;;;;;3.20;1.63;;;20.40;57.90;;;;;;8428444;28;20052;-43
2023/05/27 08:10:29;;;;;;;1.90;1.70;;;20.50;58.00;;;;;;8428753;28;20032;-43
2023/05/27 08:14:30;;;;;;;2.90;1.73;;;20.40;58.00;;;;;;8428351;28;20032;-44
2023/05/27 08:18:31;;;;;;;4.63;2.30;;;20.40;58.00;;;;;;8428420;28;20289;-44
2023/05/27 08:22:32;;;;;;;3.92;2.03;;;20.40;58.10;;;;;;8428556;28;20146;-44
2023/05/27 08:26:32;;;;;;;2.17;1.63;;;20.40;58.10;;;;;;8427982;28;20051;-44
2023/05/27 08:30:33;;;;;;;4.05;1.80;;;20.40;58.10;;;;;;8427727;28;20028;-43
2023/05/27 08:34:33;;;;;;;3.60;1.80;;;20.30;58.10;;;;;;8427753;28;20390;-43
2023/05/27 08:38:34;;;;;;;1.90;1.33;;;20.40;58.20;;;;;;8427551;28;20469;-44
2023/05/27 08:42:35;;;;;;;2.65;1.60;;;20.50;57.90;;;;;;8427450;28;20052;-43
2023/05/27 08:46:36;;;;;;;;;;;20.60;57.60;;;;;;8427980;28;20051;-43
2023/05/27 08:50:37;;;;;;;3.50;1.50;;;20.60;57.60;;;;;;8427502;28;19903;-44
2023/05/27 08:54:38;;;;;;;1.92;1.42;;;20.60;57.40;;;;;;8428007;28;20028;-44
2023/05/27 08:58:39;;;;;;;2.25;1.60;;;20.60;57.40;;;;;;8427360;28;20036;-43
2023/05/27 09:02:40;;;;;;;2.25;1.55;;;20.60;57.40;;;;;;8427023;28;20087;-44
2023/05/27 09:06:41;;;;;;;2.67;1.60;;;20.60;57.40;;;;;;8426791;28;20056;-44
2023/05/27 09:10:42;;;;;;;2.72;1.58;;;20.60;57.50;;;;;;8426815;28;20028;-44
2023/05/27 09:14:43;;;;;;;;;;;20.50;58.10;;;;;;8427546;28;20020;-43
2023/05/27 09:18:44;;;;;;;2.63;1.57;;;20.50;57.50;;;;;;8408759;28;20369;-44
2023/05/27 09:22:44;;;;;;;2.05;1.73;;;20.50;57.60;;;;;;8442796;28;20039;-44
2023/05/27 09:26:45;;;;;;;2.28;1.50;;;20.50;57.80;;;;;;8426162;28;20400;-44
2023/05/27 09:30:47;;;;;;;4.25;2.05;;;20.40;57.90;;;;;;8426377;28;20032;-44
2023/05/27 09:34:47;;;;;;;2.20;1.50;;;20.40;58.00;;;;;;8426598;28;20053;-44
2023/05/27 09:38:48;;;;;;;3.10;1.60;;;20.30;58.00;;;;;;8425950;28;20036;-44
2023/05/27 09:42:49;;;;;;;1.90;1.40;;;20.30;58.00;;;;;;8426376;28;20725;-44
2023/05/27 09:46:53;;;;;;;2.70;1.45;;;20.30;58.10;;;;;;8428031;28;20469;-43
2023/05/27 09:50:54;;;;;;;2.55;1.70;;;20.30;58.10;;;;;;8433419;28;20028;-44
2023/05/27 09:54:55;;;;;;;2.15;1.38;;;20.30;58.10;;;;;;8433822;28;20024;-43
2023/05/27 09:58:57;;;;;;;1.63;1.50;;;20.30;58.10;;;;;;8414991;28;20366;-44
2023/05/27 10:03:00;;;;;;;3.13;1.73;;;20.30;58.10;;;;;;8432912;28;20067;-44
2023/05/27 10:07:02;;;;;;;2.30;1.50;;;20.30;58.10;;;;;;8432533;28;20047;-44
2023/05/27 10:11:03;;;;;;;2.42;1.40;;;20.30;58.10;;;;;;8432291;28;20039;-44
2023/05/27 10:15:04;;;;;;;2.17;1.23;;;20.30;58.10;;;;;;8432416;28;20480;-43
2023/05/27 10:19:09;;;;;;;;;;;20.30;58.10;;;;;;8432852;28;20042;-43
2023/05/27 10:23:11;;;;;;;1.45;1.33;;;20.30;58.00;;;;;;8432233;28;20246;-43
2023/05/27 10:27:12;;;;;;;2.80;1.63;;;20.30;58.10;;;;;;8431829;28;20032;-44
2023/05/27 10:31:18;;;;;;;2.47;1.42;;;20.30;58.10;;;;;;8431917;28;20039;-44
2023/05/27 10:35:18;;;;;;;2.67;1.80;;;20.30;58.00;;;;;;8431624;28;20028;-43
2023/05/27 10:39:19;;;;;;;2.65;1.50;;;20.30;58.00;;;;;;8431232;28;20032;-42
2023/05/27 10:43:20;;;;;;;3.28;2.08;;;20.30;58.00;;;;;;8431616;28;20063;-43
2023/05/27 10:47:28;;;;;;;2.42;1.52;;;20.30;58.10;;;;;;8413762;28;20032;-43
2023/05/27 10:51:32;;;;;;;2.28;1.30;;;20.30;58.00;;;;;;8431084;28;20032;-43
2023/05/27 10:55:33;;;;;;;2.15;1.55;;;20.30;58.00;;;;;;8431326;28;20032;-44
2023/05/27 10:59:45;;;;;;;1.83;1.30;;;20.30;58.00;;;;;;8431121;28;20028;-43
2023/05/27 11:03:49;;;;;;;1.98;1.50;;;20.30;58.00;;;;;;8430754;28;20048;-43
2023/05/27 11:07:49;;;;;;;1.98;1.30;;;20.30;58.00;;;;;;8430783;28;20036;-43
2023/05/27 11:11:50;;;;;;;1.60;1.40;;;20.30;58.10;;;;;;8430597;28;20064;-44
2023/05/27 11:15:50;;;;;;;2.95;1.75;;;20.30;58.10;;;;;;8430393;28;20763;-43
2023/05/27 11:19:51;;;;;;;2.33;1.43;;;20.30;58.10;;;;;;8430857;28;20039;-44
2023/05/27 11:23:52;;;;;;;4.30;1.27;;;20.30;58.10;;;;;;8431163;28;20309;-43
2023/05/27 11:27:53;;;;;;;2.55;1.95;;;20.30;58.00;;;;;;8445740;28;20048;-43
2023/05/27 11:31:53;;;;;;;4.80;2.85;;;20.40;57.70;;;;;;8458406;28;20081;-41
2023/05/27 11:36:07;;;;;;;4.55;3.13;;;20.40;57.30;;;;;;8430303;28;20032;-42
2023/05/27 11:40:12;;;;;;;6.63;3.83;;;20.40;56.90;;;;;;8413831;28;20469;-42
2023/05/27 11:44:13;;;;;;;7.22;4.03;;;20.50;56.70;;;;;;8463174;28;20085;-43
2023/05/27 11:48:13;;;;;;;7.95;4.32;;;20.60;56.10;;;;;;8439344;28;20032;-42
2023/05/27 11:52:14;;;;;;;8.63;5.13;;;20.60;55.50;;;;;;8458987;28;20068;-44
2023/05/27 11:56:15;;;;;;;11.85;4.43;;;20.70;55.50;;;;;;8463843;28;20042;-42
2023/05/27 12:00:17;;;;;;;11.57;5.63;;;20.70;55.40;;;;;;8445176;28;20393;-43
2023/05/27 12:04:18;;;;;;;11.00;5.78;;;20.70;55.00;;;;;;8462819;28;20184;-42
2023/05/27 12:08:18;;;;;;;14.35;6.05;;;20.70;54.20;;;;;;8436673;27;20039;-43
2023/05/27 12:12:20;;;;;;;15.52;7.70;;;20.80;54.20;;;;;;8478424;27;20443;-42
2023/05/27 12:16:21;;;;;;;13.35;6.43;;;20.80;53.90;;;;;;8489693;27;20122;-43
2023/05/27 12:20:21;;;;;;;14.75;7.15;;;20.90;53.50;;;;;;8462434;27;20042;-43
2023/05/27 12:24:22;;;;;;;15.57;7.28;;;20.90;53.70;;;;;;8439060;27;20039;-43
2023/05/27 12:28:23;;;;;;;10.75;6.60;;;20.90;53.40;;;;;;8459457;28;20023;-42
2023/05/27 12:32:23;;;;;;;13.70;7.07;;;20.90;54.10;;;;;;8459706;28;20141;-43
2023/05/27 12:36:24;;;;;;;14.10;6.63;;;20.90;53.40;;;;;;8447947;27;20080;-43
2023/05/27 12:40:25;;;;;;;12.30;6.35;;;20.90;53.70;;;;;;8496270;27;20067;-43
2023/05/27 12:44:26;;;;;;;12.68;7.25;;;20.90;53.50;;;;;;8495903;27;20059;-43
2023/05/27 12:48:27;;;;;;;13.95;6.75;;;21.00;53.10;;;;;;8495806;27;20042;-43
2023/05/27 12:52:28;;;;;;;11.40;6.75;;;21.00;52.70;;;;;;8415741;28;20116;-43
2023/05/27 12:56:29;;;;;;;;;;;21.00;53.10;;;;;;8491213;27;20448;-42
2023/05/27 13:00:31;;;;;;;16.33;8.10;;;21.00;54.70;;;;;;8451046;27;19999;-42
2023/05/27 13:04:31;;;;;;;15.50;7.13;;;21.10;56.30;;;;;;8427949;28;20112;-43
2023/05/27 13:08:32;;;;;;;16.07;7.07;;;21.10;56.70;;;;;;8427685;28;20115;-43
2023/05/27 13:12:34;;;;;;;16.88;7.35;;;21.10;55.70;;;;;;8440227;28;20346;-42
2023/05/27 13:16:34;;;;;;;13.82;7.70;;;21.20;56.10;;;;;;8457225;28;20114;-43
2023/05/27 13:20:35;;;;;;;11.80;6.82;;;21.20;54.80;;;;;;8444933;28;20047;-43
2023/05/27 13:24:36;;;;;;;19.08;7.53;;;21.20;53.90;;;;;;8427331;28;20050;-42
2023/05/27 13:28:37;;;;;;;13.20;7.75;;;21.20;54.00;;;;;;8453478;27;20035;-43
2023/05/27 13:32:38;;;;;;;10.68;7.00;;;21.20;54.50;;;;;;8481436;27;20369;-43
2023/05/27 13:36:38;;;;;;;;;;;21.20;53.90;;;;;;8461350;28;20036;-43
2023/05/27 13:40:39;;;;;;;13.60;7.93;;;21.20;54.10;;;;;;8460589;28;19912;-43
2023/05/27 13:44:40;;;;;;;16.90;7.85;;;21.20;53.70;;;;;;8460663;28;20032;-43
2023/05/27 13:48:41;;;;;;;15.77;7.88;;;21.20;53.30;;;;;;8460393;28;20028;-42
2023/05/27 13:52:42;;;;;;;14.60;8.27;;;21.20;53.30;;;;;;8452810;28;20119;-43
2023/05/27 13:56:43;;;;;;;16.88;7.47;;;21.20;53.70;;;;;;8408224;28;20036;-43
2023/05/27 14:00:44;;;;;;;;;;;21.30;53.40;;;;;;8408352;28;20059;-43
2023/05/27 14:04:44;;;;;;;14.47;7.63;;;21.20;53.00;;;;;;8426131;28;20388;-44
2023/05/27 14:08:45;;;;;;;16.77;7.80;;;21.20;52.90;;;;;;8408190;28;20036;-43
2023/05/27 14:12:46;;;;;;;22.73;8.68;;;21.20;52.80;;;;;;8425861;28;20036;-42
2023/05/27 14:16:47;;;;;;;25.73;8.50;;;21.20;52.40;;;;;;8407768;28;20031;-43
2023/05/27 14:20:48;;;;;;;;;;;21.20;52.30;;;;;;8426325;28;20032;-42
2023/05/27 14:24:49;;;;;;;31.80;9.45;;;21.20;52.30;;;;;;8425589;28;19952;-42
2023/05/27 14:28:50;;;;;;;41.45;9.77;;;21.20;52.20;;;;;;8420622;28;20405;-42
2023/05/27 14:32:50;;;;;;;31.58;8.60;;;21.20;52.30;;;;;;8424525;28;20078;-43
2023/05/27 14:36:51;;;;;;;32.47;10.25;;;21.20;52.40;;;;;;8447460;28;20031;-43
2023/05/27 14:40:52;;;;;;;35.53;9.00;;;21.30;52.10;;;;;;8458049;27;20035;-45
2023/05/27 14:44:52;;;;;;;32.78;8.75;;;21.40;53.80;;;;;;8450691;27;20466;-41
2023/05/27 14:48:53;;;;;;;23.88;8.70;;;21.40;53.70;;;;;;8466914;27;20077;-42
2023/05/27 14:52:54;;;;;;;21.02;8.02;;;21.40;53.30;;;;;;8458166;27;20044;-43
2023/05/27 14:56:54;;;;;;;31.30;9.55;;;21.40;53.00;;;;;;8431894;28;20028;-43
2023/05/27 15:00:56;;;;;;;28.52;8.63;;;21.50;52.90;;;;;;8462811;27;20024;-44
2023/05/27 15:04:56;;;;;;;;;;;21.40;52.90;;;;;;8465838;28;20539;-41
2023/05/27 15:08:57;;;;;;;23.90;8.10;;;21.40;52.90;;;;;;8433133;28;20262;-44
2023/05/27 15:12:58;;;;;;;21.17;7.22;;;21.40;54.40;;;;;;8451909;28;20482;-42
2023/05/27 15:16:58;;;;;;;25.77;8.23;;;21.40;54.20;;;;;;8467409;27;20031;-42
2023/05/27 15:20:59;;;;;;;18.63;8.38;;;21.40;53.70;;;;;;8464771;28;20404;-41
2023/05/27 15:25:01;;;;;;;17.20;8.05;;;21.50;53.60;;;;;;8419082;28;20138;-42
2023/05/27 15:29:02;;;;;;;23.65;8.07;;;21.40;53.20;;;;;;8430790;28;20477;-42
2023/05/27 15:33:02;;;;;;;19.38;8.98;;;21.50;53.60;;;;;;8429848;28;20118;-42
2023/05/27 15:37:04;;;;;;;23.23;8.15;;;21.50;53.20;;;;;;8444698;28;20035;-43
2023/05/27 15:41:05;;;;;;;22.92;8.15;;;21.50;53.30;;;;;;8463958;28;20028;-43
2023/05/27 15:45:06;;;;;;;26.42;9.10;;;21.40;53.90;;;;;;8452398;28;20127;-44
2023/05/27 15:49:07;;;;;;;;;;;21.40;53.80;;;;;;8432412;28;20038;-42
2023/05/27 15:53:08;;;;;;;22.77;8.47;;;21.40;53.40;;;;;;8434249;28;19916;-44
2023/05/27 15:57:09;;;;;;;20.25;8.23;;;21.50;53.20;;;;;;8463622;28;20032;-43
2023/05/27 16:01:10;;;;;;;22.70;9.80;;;21.50;52.90;;;;;;8445400;28;20042;-43
2023/05/27 16:05:13;;;;;;;20.88;8.05;;;21.60;54.00;;;;;;8463275;28;20052;-43
2023/05/27 16:09:13;;;;;;;18.55;7.65;;;21.60;53.10;;;;;;8462295;28;20063;-43
2023/05/27 16:13:14;;;;;;;21.60;9.05;;;21.60;53.70;;;;;;8440342;28;20020;-42
2023/05/27 16:17:15;;;;;;;16.00;7.72;;;21.60;54.30;;;;;;8446693;27;20043;-43
2023/05/27 16:21:16;;;;;;;20.67;8.30;;;21.60;54.10;;;;;;8429260;28;20531;-43
2023/05/27 16:25:16;;;;;;;22.58;8.15;;;21.60;54.50;;;;;;8410959;28;20086;-44
2023/05/27 16:29:17;;;;;;;18.55;7.45;;;21.60;54.60;;;;;;8461072;28;20495;-44
2023/05/27 16:33:18;;;;;;;28.02;8.30;;;21.50;54.60;;;;;;8459390;27;20377;-44
2023/05/27 16:37:18;;;;;;;15.07;7.28;;;21.60;54.80;;;;;;8462252;28;20039;-43
2023/05/27 16:41:20;;;;;;;16.10;7.63;;;21.60;49.90;;;;;;8451272;28;20100;-43
2023/05/27 16:45:21;;;;;;;16.35;6.65;;;21.80;49.80;;;;;;8443826;28;20111;-43
2023/05/27 16:49:21;;;;;;;16.92;6.40;;;21.90;48.10;;;;;;8443691;28;20039;-44
2023/05/27 16:53:22;;;;;;;12.55;6.30;;;21.90;47.20;;;;;;8440427;28;20032;-44
2023/05/27 16:57:22;;;;;;;11.18;6.30;;;22.00;46.50;;;;;;8427788;28;20031;-43
2023/05/27 17:01:23;;;;;;;15.77;7.18;;;22.10;45.20;;;;;;8446495;28;20515;-44
2023/05/27 17:05:24;;;;;;;13.90;6.28;;;22.10;46.80;;;;;;8461766;28;20497;-43
2023/05/27 17:09:24;;;;;;;12.30;5.85;;;22.10;43.90;;;;;;8461274;28;20154;-42
2023/05/27 17:13:25;;;;;;;14.80;6.97;;;22.20;44.40;;;;;;8437340;28;20025;-44
2023/05/27 17:17:26;;;;;;;10.50;6.05;;;22.20;45.00;;;;;;8409587;28;20032;-44
2023/05/27 17:21:28;;;;;;;15.68;6.57;;;22.10;44.30;;;;;;8427510;28;20043;-43
2023/05/27 17:25:29;;;;;;;22.00;7.70;;;21.90;47.10;;;;;;8422422;28;20036;-47
2023/05/27 17:29:29;;;;;;;20.63;7.13;;;21.80;47.80;;;;;;8429272;28;20032;-46
2023/05/27 17:33:30;;;;;;;15.20;6.05;;;21.70;49.40;;;;;;8450248;28;20115;-46
2023/05/27 17:37:31;;;;;;;13.63;6.57;;;21.60;50.30;;;;;;8463053;28;20032;-48
2023/05/27 17:41:31;;;;;;;24.67;7.03;;;21.60;50.90;;;;;;8462688;28;20051;-51
2023/05/27 17:45:32;;;;;;;13.68;6.68;;;21.60;51.00;;;;;;8457292;28;20488;-46
2023/05/27 17:49:33;;;;;;;19.73;7.05;;;21.60;51.50;;;;;;8450188;28;20506;-49
2023/05/27 17:53:35;;;;;;;18.08;6.90;;;21.60;51.90;;;;;;8410287;28;20040;-48
2023/05/27 17:57:35;;;;;;;19.75;8.63;;;21.60;52.10;;;;;;8446890;28;20046;-49
2023/05/27 18:01:37;;;;;;;17.92;6.40;;;21.70;52.30;;;;;;8458527;28;20548;-47
2023/05/27 18:05:37;;;;;;;;;;;21.60;52.60;;;;;;8468424;28;20078;-45
2023/05/27 18:09:39;;;;;;;18.73;7.13;;;21.60;52.80;;;;;;8469296;28;19912;-47
2023/05/27 18:13:39;;;;;;;20.90;6.40;;;21.60;52.90;;;;;;8443358;28;20028;-49
2023/05/27 18:17:40;;;;;;;19.77;6.63;;;21.60;52.90;;;;;;8453512;28;20083;-47
2023/05/27 18:21:41;;;;;;;17.75;6.57;;;21.60;52.90;;;;;;8467884;28;20032;-46
2023/05/27 18:25:41;;;;;;;19.42;7.53;;;21.60;53.10;;;;;;8448231;28;20457;-45
2023/05/27 18:29:42;;;;;;;24.48;8.60;;;21.60;53.90;;;;;;8434779;28;20485;-46
2023/05/27 18:33:43;;;;;;;30.80;12.15;;;21.60;55.60;;;;;;8456110;28;20039;-45
2023/05/27 18:37:43;;;;;;;26.50;9.85;;;21.60;56.70;;;;;;8468450;28;20031;-46
2023/05/27 18:41:44;;;;;;;36.92;14.07;;;21.60;56.30;;;;;;8467998;28;20036;-45
2023/05/27 18:45:56;;;;;;;46.03;13.30;;;21.70;57.30;;;;;;8468188;28;20481;-46
2023/05/27 18:49:56;;;;;;;46.53;14.07;;;21.70;55.90;;;;;;8449905;27;20551;-48
2023/05/27 18:53:57;;;;;;;38.05;12.75;;;21.70;55.40;;;;;;8452755;27;20544;-46
2023/05/27 18:57:58;;;;;;;39.30;11.80;;;21.70;55.10;;;;;;8434335;28;20067;-50
2023/05/27 19:01:58;;;;;;;37.15;12.05;;;21.70;55.70;;;;;;8433959;28;20482;-47
2023/05/27 19:05:59;;;;;;;34.08;10.38;;;21.70;55.70;;;;;;8409545;28;20056;-47
2023/05/27 19:10:00;;;;;;;35.67;10.32;;;21.70;56.90;;;;;;8400367;28;20123;-47
2023/05/27 19:14:00;;;;;;;28.35;11.32;;;21.80;58.40;;;;;;8428538;28;20097;-47
2023/05/27 19:18:01;;;;;;;36.42;11.98;;;21.80;58.30;;;;;;8432434;28;20046;-47
2023/05/27 19:22:02;;;;;;;25.70;9.43;;;21.80;58.10;;;;;;8428079;28;20090;-46
2023/05/27 19:26:03;;;;;;;41.97;11.05;;;21.80;57.90;;;;;;8399482;28;20111;-47
2023/05/27 19:30:05;;;;;;;26.48;9.98;;;21.80;57.70;;;;;;8399285;28;20040;-47
2023/05/27 19:34:05;;;;;;;33.47;8.77;;;21.80;57.50;;;;;;8425098;28;20032;-48
2023/05/27 19:38:06;;;;;;;24.23;9.10;;;21.80;57.70;;;;;;8432737;28;20044;-49
2023/05/27 19:42:07;;;;;;;24.23;9.02;;;21.80;57.70;;;;;;8432692;28;20038;-47
2023/05/27 19:46:07;;;;;;;28.58;9.23;;;21.80;57.40;;;;;;8384202;28;20036;-47
2023/05/27 19:50:08;;;;;;;34.22;9.43;;;21.80;57.30;;;;;;8422350;28;20531;-48
2023/05/27 19:54:09;;;;;;;21.50;7.47;;;21.80;58.20;;;;;;8412540;28;20056;-49
2023/05/27 19:58:10;;;;;;;32.65;9.05;;;21.70;57.60;;;;;;8414317;28;20489;-46
2023/05/27 20:02:10;;;;;;;27.40;9.43;;;21.70;57.60;;;;;;8398434;28;20401;-47
2023/05/27 20:06:13;;;;;;;19.90;8.05;;;21.70;57.60;;;;;;8424290;28;20090;-47
2023/05/27 20:10:14;;;;;;;28.55;8.88;;;21.70;58.10;;;;;;8431968;28;20044;-47
2023/05/27 20:14:15;;;;;;;21.33;7.93;;;21.70;57.90;;;;;;8462216;28;20024;-46
2023/05/27 20:18:18;;;;;;;30.08;9.65;;;21.70;58.30;;;;;;8464077;28;20063;-46
2023/05/27 20:22:18;;;;;;;20.95;8.20;;;21.70;58.10;;;;;;8459096;28;20085;-47
2023/05/27 20:26:19;;;;;;;30.58;8.18;;;21.70;58.00;;;;;;8434306;28;20036;-46
2023/05/27 20:30:22;;;;;;;19.38;7.07;;;21.70;58.00;;;;;;8430728;28;20455;-47
2023/05/27 20:34:22;;;;;;;21.27;8.45;;;21.70;57.90;;;;;;8459321;28;20027;-48
2023/05/27 20:38:23;;;;;;;20.75;8.38;;;21.70;57.80;;;;;;8464856;28;20028;-46
2023/05/27 20:42:24;;;;;;;17.70;6.95;;;21.70;57.70;;;;;;8445647;28;20035;-47
2023/05/27 20:46:26;;;;;;;16.83;7.38;;;21.70;57.40;;;;;;8462893;28;20066;-46
2023/05/27 20:50:26;;;;;;;22.33;7.68;;;21.70;57.60;;;;;;8464427;28;20076;-46
2023/05/27 20:54:27;;;;;;;21.40;7.50;;;21.70;57.60;;;;;;8441588;28;20111;-46